Lapis Arrow — C6VH5 — position and weather

sailwx.info

Track history (hours):
 
Tides and Currents Weather Stations Pressure Air Temp Water Temp Dewpoint Dewpoint Depression Visibility Wind Speed Wind Dir Waves Ship Positions

Lapis Arrow

Last reported at 2014-Oct-30 22:15 UTC. Time now 2014-Nov-26 04:15 UTC.
Position N 30°20' W 122°37'.
Warning: this ship's position is 26 days out of date.

Length 176 m; draft 7.3 m.

Type: Cargo ship. MMSI: 308800800.

Date/timePositionNaut miles runAvg speedWind from/ knotsBaromVisibWave heightAir tempDewpointWater temp
2014-Oct-30 22:15N 30°20' W 122°37'3813.3
2014-Oct-30 19:24N 30°41' W 123°14'8115.7
2014-Oct-30 14:14N 31°25' W 124°33'1115.6
2014-Oct-30 13:33N 31°31' W 124°44'1615.4
2014-Oct-30 12:30N 31°40' W 124°60'1915.4
2014-Oct-30 11:17N 31°50' W 125°18'1315.4
2014-Oct-30 10:26N 31°57' W 125°31'1315.2
2014-Oct-30 09:33N 32°04' W 125°45'1515.0
2014-Oct-30 08:33N 32°12' W 125°60'1515.0
2014-Oct-30 07:33N 32°20' W 126°15'1515.4
2014-Oct-30 06:33N 32°29' W 126°30'1715.3
2014-Oct-30 05:28N 32°37' W 126°47'  
Track history (hours):
 
Tides and Currents Weather Stations Pressure Air Temp Water Temp Dewpoint Dewpoint Depression Visibility Wind Speed Wind Dir Waves Ship Positions

Lapis Arrow

Last reported at 2014-Oct-30 22:15 UTC. Time now 2014-Nov-26 04:15 UTC.
Position N 30°20' W 122°37'.
Warning: this ship's position is 26 days out of date.

Length 176 m; draft 7.3 m.

Type: Cargo ship. MMSI: 308800800.

Date/timePositionNaut miles runAvg speedWind from/ knotsBaromVisibWave heightAir tempDewpointWater temp
2014-Oct-30 22:15N 30°20' W 122°37'3813.3
2014-Oct-30 19:24N 30°41' W 123°14'8115.7
2014-Oct-30 14:14N 31°25' W 124°33'1115.6
2014-Oct-30 13:33N 31°31' W 124°44'1615.4
2014-Oct-30 12:30N 31°40' W 124°60'1915.4
2014-Oct-30 11:17N 31°50' W 125°18'1315.4
2014-Oct-30 10:26N 31°57' W 125°31'1315.2
2014-Oct-30 09:33N 32°04' W 125°45'1515.0
2014-Oct-30 08:33N 32°12' W 125°60'1515.0
2014-Oct-30 07:33N 32°20' W 126°15'1515.4
2014-Oct-30 06:33N 32°29' W 126°30'1715.3
2014-Oct-30 05:28N 32°37' W 126°47'  

Dump ship's entire track history